Time;durP1;ratioP1;P1;durP2;ratioP2;P2;SDS_P1;SDS_P2;PMS_P1;PMS_P2;Temp;Humidity;BMP_temperature;BMP_pressure;BME280_temperature;BME280_humidity;BME280_pressure;Samples;Min_cycle;Max_cycle;Signal;HPM_P1;HPM_P2
2020/12/03 00:01:56;;;;;;;33.47;13.98;;;7.00;99.90;;;;;;5065429;28;20013;-78
2020/12/03 00:04:22;;;;;;;38.55;14.40;;;7.10;99.90;;;;;;5071875;28;20025;-79
2020/12/03 00:06:54;;;;;;;36.85;14.93;;;7.10;99.90;;;;;;5066456;28;20048;-80
2020/12/03 00:09:21;;;;;;;40.55;15.55;;;7.00;99.90;;;;;;5074343;28;20064;-82
2020/12/03 00:11:53;;;;;;;34.10;13.95;;;7.00;99.90;;;;;;5079351;28;20051;-79
2020/12/03 00:14:19;;;;;;;49.38;15.82;;;6.90;99.90;;;;;;5078925;28;20040;-79
2020/12/03 00:16:47;;;;;;;32.85;14.93;;;6.90;99.90;;;;;;5077560;28;20105;-80
2020/12/03 00:19:14;;;;;;;40.75;15.38;;;7.00;99.90;;;;;;5075063;28;20036;-79
2020/12/03 00:21:46;;;;;;;38.37;15.10;;;6.90;99.90;;;;;;5064148;28;20033;-79
2020/12/03 00:24:16;;;;;;;51.00;15.23;;;6.90;99.90;;;;;;5061607;28;20116;-79
2020/12/03 00:26:42;;;;;;;38.00;15.50;;;6.90;99.90;;;;;;5056200;28;20041;-79
2020/12/03 00:29:07;;;;;;;39.38;14.63;;;6.90;99.90;;;;;;5058814;28;20025;-79
2020/12/03 00:31:33;;;;;;;36.42;14.35;;;6.90;99.90;;;;;;5055960;28;20017;-79
2020/12/03 00:34:02;;;;;;;36.88;14.02;;;6.90;99.90;;;;;;5056855;28;20068;-79
2020/12/03 00:36:27;;;;;;;41.30;14.32;;;6.90;99.90;;;;;;5054082;28;20504;-79
2020/12/03 00:38:53;;;;;;;37.33;14.95;;;6.80;99.90;;;;;;5054612;28;20025;-79
2020/12/03 00:41:19;;;;;;;44.25;14.40;;;6.80;99.90;;;;;;5054466;28;20130;-79
2020/12/03 00:43:46;;;;;;;31.20;13.70;;;6.80;99.90;;;;;;5055102;28;20025;-79
2020/12/03 00:46:12;;;;;;;37.10;13.70;;;6.80;99.90;;;;;;5055216;28;20056;-79
2020/12/03 00:48:37;;;;;;;41.00;13.27;;;6.80;99.90;;;;;;5053745;28;20452;-79
2020/12/03 00:51:04;;;;;;;38.55;14.98;;;6.80;99.90;;;;;;5054608;28;20021;-79
2020/12/03 00:53:30;;;;;;;39.85;12.93;;;6.80;99.90;;;;;;5054543;28;20024;-79
2020/12/03 00:55:55;;;;;;;37.03;12.85;;;6.80;99.90;;;;;;5053325;28;20029;-79
2020/12/03 00:58:21;;;;;;;31.02;12.05;;;6.80;99.90;;;;;;5053443;28;20021;-79
2020/12/03 01:00:47;;;;;;;40.58;14.10;;;6.80;99.90;;;;;;5054765;28;20029;-78
2020/12/03 01:03:12;;;;;;;35.80;12.70;;;6.80;99.90;;;;;;5049481;28;20078;-79
2020/12/03 01:05:38;;;;;;;37.70;13.02;;;6.90;99.90;;;;;;5048961;28;20021;-79
2020/12/03 01:08:05;;;;;;;31.20;11.38;;;6.80;99.90;;;;;;5051156;28;20120;-79
2020/12/03 01:10:33;;;;;;;34.40;11.82;;;6.80;99.90;;;;;;5054564;28;20028;-79
2020/12/03 01:12:59;;;;;;;32.33;10.87;;;6.90;99.90;;;;;;5053892;28;20087;-79
2020/12/03 01:15:25;;;;;;;41.00;11.48;;;6.90;99.90;;;;;;5052433;28;20084;-79
2020/12/03 01:17:51;;;;;;;34.78;12.13;;;6.80;99.90;;;;;;5054629;28;20053;-79
2020/12/03 01:20:23;;;;;;;25.05;10.35;;;6.80;99.90;;;;;;5047814;28;20441;-79
2020/12/03 01:22:49;;;;;;;28.15;11.15;;;6.90;99.90;;;;;;5047264;28;20473;-79
2020/12/03 01:25:18;;;;;;;26.02;11.20;;;6.90;99.90;;;;;;5054224;28;20028;-78
2020/12/03 01:27:44;;;;;;;39.08;11.40;;;6.90;99.90;;;;;;5054016;28;20090;-79
2020/12/03 01:30:10;;;;;;;36.90;11.60;;;7.00;99.90;;;;;;5053190;28;20432;-79
2020/12/03 01:32:37;;;;;;;24.65;10.20;;;7.00;99.90;;;;;;5054166;28;20055;-78
2020/12/03 01:35:07;;;;;;;34.97;10.55;;;7.00;99.90;;;;;;5053689;28;20335;-79
2020/12/03 01:37:34;;;;;;;27.13;9.90;;;6.90;99.90;;;;;;5053441;28;20021;-79
2020/12/03 01:39:59;;;;;;;26.40;9.48;;;6.90;99.90;;;;;;5054293;28;20055;-79
2020/12/03 01:42:25;;;;;;;29.77;9.48;;;6.90;99.90;;;;;;5052440;28;20072;-79
2020/12/03 01:44:53;;;;;;;24.40;8.25;;;6.90;99.90;;;;;;5054292;28;20480;-79
2020/12/03 01:47:39;;;;;;;25.73;9.65;;;6.90;99.90;;;;;;5054571;28;20036;-79
2020/12/03 01:50:07;;;;;;;29.85;8.80;;;6.90;99.90;;;;;;5052932;28;20036;-78
2020/12/03 01:52:34;;;;;;;29.85;8.93;;;6.90;99.90;;;;;;5055108;28;20108;-79
2020/12/03 01:54:59;;;;;;;24.52;8.65;;;6.90;99.90;;;;;;5052595;28;20029;-79
2020/12/03 01:57:53;;;;;;;19.55;8.45;;;6.90;99.90;;;;;;5067368;28;20025;-79
2020/12/03 02:00:20;;;;;;;22.35;8.18;;;6.90;99.90;;;;;;5070970;28;20101;-79
2020/12/03 02:02:48;;;;;;;22.75;7.57;;;6.90;99.90;;;;;;5075087;28;20012;-78
2020/12/03 02:05:21;;;;;;;17.85;7.55;;;6.80;99.90;;;;;;5073232;28;20025;-78
2020/12/03 02:07:47;;;;;;;18.58;6.65;;;6.80;99.90;;;;;;5077601;28;20033;-79
2020/12/03 02:10:16;;;;;;;28.08;8.43;;;6.90;99.90;;;;;;5077496;28;20079;-79
2020/12/03 02:12:42;;;;;;;21.00;7.32;;;6.90;99.90;;;;;;5076961;28;20025;-79
2020/12/03 02:15:10;;;;;;;24.73;7.45;;;6.90;99.90;;;;;;5064351;28;20046;-78
2020/12/03 02:17:36;;;;;;;19.38;5.88;;;6.80;99.90;;;;;;5057702;28;20037;-79
2020/12/03 02:20:12;;;;;;;24.45;7.53;;;6.80;99.90;;;;;;5055676;28;20051;-78
2020/12/03 02:22:38;;;;;;;24.63;7.05;;;6.80;99.90;;;;;;5037444;28;20017;-79
2020/12/03 02:25:04;;;;;;;16.83;6.43;;;6.90;99.90;;;;;;5053814;28;20036;-79
2020/12/03 02:27:30;;;;;;;25.27;6.90;;;6.80;99.90;;;;;;5050231;28;20533;-79
2020/12/03 02:29:56;;;;;;;25.63;8.02;;;6.90;99.90;;;;;;5037987;28;20488;-79
2020/12/03 02:32:21;;;;;;;17.02;6.63;;;6.90;99.90;;;;;;5053741;28;20025;-79
2020/12/03 02:34:48;;;;;;;21.67;6.85;;;6.90;99.90;;;;;;5050956;28;20055;-78
2020/12/03 02:37:14;;;;;;;23.05;7.82;;;6.90;99.90;;;;;;5051836;28;20009;-79
2020/12/03 02:39:40;;;;;;;16.38;6.97;;;6.80;99.90;;;;;;5041513;28;20108;-79
2020/12/03 02:42:09;;;;;;;24.30;6.78;;;6.80;99.90;;;;;;5050542;28;20484;-79
2020/12/03 02:44:38;;;;;;;20.75;5.95;;;6.80;99.90;;;;;;5052138;28;20104;-78
2020/12/03 02:47:04;;;;;;;12.48;5.82;;;6.90;99.90;;;;;;5052615;28;20037;-79
2020/12/03 02:49:30;;;;;;;28.15;7.55;;;6.90;99.90;;;;;;5050856;28;20540;-79
2020/12/03 02:51:55;;;;;;;18.05;6.38;;;6.90;99.90;;;;;;5061522;28;20031;-79
2020/12/03 02:54:21;;;;;;;28.48;7.13;;;6.90;99.90;;;;;;5052086;28;20386;-79
2020/12/03 02:56:46;;;;;;;16.20;6.45;;;6.90;99.90;;;;;;5051402;28;20041;-79
2020/12/03 02:59:12;;;;;;;21.30;6.93;;;6.90;99.90;;;;;;5031739;28;20045;-79
2020/12/03 03:01:38;;;;;;;22.55;6.68;;;6.90;99.90;;;;;;5048428;28;20042;-79
2020/12/03 03:04:04;;;;;;;23.92;6.45;;;6.90;99.90;;;;;;5053985;28;20020;-79
2020/12/03 03:06:34;;;;;;;18.10;7.70;;;6.90;99.90;;;;;;5056825;28;20445;-79
2020/12/03 03:09:02;;;;;;;31.67;6.97;;;6.80;99.90;;;;;;5055101;28;20031;-78
2020/12/03 03:11:28;;;;;;;20.27;7.40;;;6.80;99.90;;;;;;5057241;28;20036;-78
2020/12/03 03:13:54;;;;;;;25.70;6.43;;;6.90;99.90;;;;;;5055959;28;20415;-79
2020/12/03 03:16:20;;;;;;;23.25;7.55;;;6.90;99.90;;;;;;5055744;28;20048;-79
2020/12/03 03:18:45;;;;;;;20.83;7.30;;;6.80;99.90;;;;;;5054947;28;20025;-79
2020/12/03 03:21:11;;;;;;;21.65;6.28;;;6.80;99.90;;;;;;5056891;28;20335;-79
2020/12/03 03:23:37;;;;;;;24.63;6.05;;;6.80;99.90;;;;;;5056530;28;20082;-79
2020/12/03 03:26:03;;;;;;;23.75;6.20;;;6.80;99.90;;;;;;5054754;28;20119;-79
2020/12/03 03:28:29;;;;;;;23.80;6.57;;;6.80;99.90;;;;;;5054309;28;20026;-79
2020/12/03 03:30:54;;;;;;;19.60;6.75;;;6.80;99.90;;;;;;5056363;28;20549;-79
2020/12/03 03:33:20;;;;;;;21.45;6.22;;;6.90;99.90;;;;;;5055091;28;20099;-79
2020/12/03 03:35:47;;;;;;;15.07;6.28;;;6.90;99.90;;;;;;5053852;28;20037;-79
2020/12/03 03:38:13;;;;;;;11.65;5.07;;;6.90;99.90;;;;;;5056088;28;20025;-79
2020/12/03 03:40:39;;;;;;;21.92;6.88;;;6.90;99.90;;;;;;5055420;28;20056;-79
2020/12/03 03:43:05;;;;;;;15.90;5.47;;;6.90;99.90;;;;;;5056043;28;20021;-79
2020/12/03 03:45:31;;;;;;;21.50;6.78;;;6.90;99.90;;;;;;5057146;28;20029;-79
2020/12/03 03:47:59;;;;;;;16.65;6.05;;;6.90;99.90;;;;;;5062747;28;20049;-78
2020/12/03 03:50:24;;;;;;;16.90;5.90;;;6.90;99.90;;;;;;5072462;28;20025;-78
2020/12/03 03:52:50;;;;;;;11.88;5.53;;;6.80;99.90;;;;;;5074038;28;20045;-78
2020/12/03 03:55:15;;;;;;;18.70;6.18;;;6.80;99.90;;;;;;5074669;28;20044;-79
2020/12/03 03:57:41;;;;;;;17.80;5.90;;;6.90;99.90;;;;;;5072488;28;20052;-78
2020/12/03 04:00:07;;;;;;;23.30;7.28;;;6.90;99.90;;;;;;5064304;28;20451;-79
2020/12/03 04:02:33;;;;;;;20.45;6.50;;;6.80;99.90;;;;;;5059745;28;20052;-79
2020/12/03 04:04:58;;;;;;;15.50;5.95;;;6.90;99.90;;;;;;5057896;28;20404;-78
2020/12/03 04:07:24;;;;;;;23.27;9.13;;;6.90;99.90;;;;;;5055019;28;20442;-79
2020/12/03 04:09:49;;;;;;;20.85;7.30;;;6.90;99.90;;;;;;5057555;28;20079;-78
2020/12/03 04:12:15;;;;;;;30.55;6.80;;;6.90;99.90;;;;;;5056395;28;20021;-79
2020/12/03 04:14:41;;;;;;;22.70;6.82;;;6.90;99.90;;;;;;5055095;28;20041;-78
2020/12/03 04:17:06;;;;;;;24.40;6.80;;;6.90;99.90;;;;;;5055213;28;20044;-79
2020/12/03 04:19:32;;;;;;;13.90;6.32;;;6.90;99.90;;;;;;5053878;28;20037;-78
2020/12/03 04:21:58;;;;;;;22.75;7.32;;;6.90;99.90;;;;;;5055247;28;20025;-78
2020/12/03 04:24:23;;;;;;;25.98;8.35;;;6.90;99.90;;;;;;5053690;28;20040;-78
2020/12/03 04:26:49;;;;;;;22.83;8.35;;;6.80;99.90;;;;;;5041730;28;20029;-79
2020/12/03 04:29:14;;;;;;;28.88;8.73;;;6.90;99.90;;;;;;5055413;28;20067;-78
2020/12/03 04:31:44;;;;;;;22.23;8.55;;;6.90;99.90;;;;;;5051071;28;20033;-78
2020/12/03 04:34:12;;;;;;;18.15;7.78;;;6.90;99.90;;;;;;5046574;28;20033;-79
2020/12/03 04:36:38;;;;;;;17.45;7.32;;;6.90;99.90;;;;;;5039306;28;20460;-79
2020/12/03 04:39:05;;;;;;;23.45;8.80;;;7.00;99.90;;;;;;5046318;28;20021;-78
2020/12/03 04:41:31;;;;;;;27.75;8.93;;;6.90;99.90;;;;;;5053600;28;20025;-78
2020/12/03 04:44:11;;;;;;;30.52;9.50;;;6.90;99.90;;;;;;5053833;28;20057;-78
2020/12/03 04:47:01;;;;;;;20.65;8.75;;;6.90;99.90;;;;;;5053511;28;20445;-79
2020/12/03 04:50:11;;;;;;;27.45;9.73;;;7.00;99.90;;;;;;5053862;28;20032;-78
2020/12/03 04:53:04;;;;;;;18.15;9.02;;;6.90;99.90;;;;;;5053212;28;20098;-79
2020/12/03 04:55:45;;;;;;;22.77;10.32;;;6.90;99.90;;;;;;5041997;28;20036;-79
2020/12/03 04:58:30;;;;;;;32.47;9.55;;;7.00;99.90;;;;;;5069980;28;20420;-79
2020/12/03 05:01:03;;;;;;;26.42;10.18;;;6.90;99.90;;;;;;5057518;28;20025;-78
2020/12/03 05:03:50;;;;;;;30.00;10.30;;;6.90;99.90;;;;;;5053204;28;20028;-78
2020/12/03 05:06:43;;;;;;;24.13;10.60;;;6.90;99.90;;;;;;5047501;28;20025;-79
2020/12/03 05:09:35;;;;;;;31.55;10.65;;;7.00;99.90;;;;;;5054531;28;20384;-79
2020/12/03 05:12:23;;;;;;;27.15;10.10;;;7.00;99.90;;;;;;5054854;28;20028;-78
2020/12/03 05:15:20;;;;;;;31.00;10.55;;;7.00;99.90;;;;;;5036364;28;20040;-78
2020/12/03 05:17:55;;;;;;;28.92;11.77;;;7.00;99.90;;;;;;5053016;28;20102;-79
2020/12/03 05:20:29;;;;;;;20.25;9.75;;;6.90;99.90;;;;;;5053379;28;20020;-79
2020/12/03 05:23:13;;;;;;;36.42;11.30;;;6.90;99.90;;;;;;5051450;28;20120;-78
2020/12/03 05:25:39;;;;;;;30.85;11.95;;;6.90;99.90;;;;;;5053574;28;22146;-78
2020/12/03 05:28:57;;;;;;;25.88;12.23;;;6.90;99.90;;;;;;5053109;28;20021;-79
2020/12/03 05:31:30;;;;;;;36.00;11.40;;;6.90;99.90;;;;;;5044279;28;20438;-79
2020/12/03 05:34:08;;;;;;;30.85;10.85;;;6.90;99.90;;;;;;5054387;28;20102;-79
2020/12/03 05:36:37;;;;;;;26.33;12.38;;;6.90;99.90;;;;;;5052220;28;20021;-78
2020/12/03 05:39:08;;;;;;;31.05;12.52;;;6.90;99.90;;;;;;5054269;28;20095;-78
2020/12/03 05:41:39;;;;;;;30.55;13.38;;;6.90;99.90;;;;;;5055000;28;20063;-78
2020/12/03 05:44:19;;;;;;;35.58;13.70;;;6.90;99.90;;;;;;5072622;28;20110;-78
2020/12/03 05:46:45;;;;;;;26.95;13.75;;;6.90;99.90;;;;;;5074779;28;20497;-78
2020/12/03 05:49:20;;;;;;;28.17;13.55;;;6.90;99.90;;;;;;5074838;28;20044;-77
2020/12/03 05:51:46;;;;;;;29.27;12.40;;;6.90;99.90;;;;;;5072494;28;20001;-79
2020/12/03 05:54:12;;;;;;;34.60;14.65;;;7.00;99.90;;;;;;5075915;28;20043;-79
2020/12/03 05:56:37;;;;;;;38.60;13.60;;;6.90;99.90;;;;;;5076133;28;20033;-80
2020/12/03 05:59:32;;;;;;;32.03;13.73;;;6.90;99.90;;;;;;5076189;28;20084;-80
2020/12/03 06:02:03;;;;;;;33.88;14.32;;;6.90;99.90;;;;;;5051087;28;20474;-80
2020/12/03 06:04:59;;;;;;;29.30;11.43;;;6.90;99.90;;;;;;5058226;28;20029;-80
2020/12/03 06:07:38;;;;;;;31.17;12.15;;;6.90;99.90;;;;;;5047389;28;20086;-80
2020/12/03 06:10:24;;;;;;;30.70;12.15;;;6.90;99.90;;;;;;5039093;28;21947;-80
2020/12/03 06:13:34;;;;;;;26.48;13.50;;;6.90;99.90;;;;;;5050461;28;20017;-81
2020/12/03 06:16:03;;;;;;;32.25;12.15;;;6.80;99.90;;;;;;5053548;28;20053;-80
2020/12/03 06:18:55;;;;;;;28.52;13.27;;;6.90;99.90;;;;;;5048574;28;20025;-79
2020/12/03 06:21:31;;;;;;;27.15;12.32;;;6.80;99.90;;;;;;5052776;28;20401;-81
2020/12/03 06:24:09;;;;;;;31.55;13.43;;;6.90;99.90;;;;;;5049537;28;20033;-79
2020/12/03 06:26:45;;;;;;;21.23;12.20;;;6.90;99.90;;;;;;5032179;28;20038;-79
2020/12/03 06:29:34;;;;;;;25.50;13.13;;;6.90;99.90;;;;;;5047777;28;20029;-80
2020/12/03 06:32:23;;;;;;;26.30;12.77;;;6.90;99.90;;;;;;5052925;28;20104;-80
2020/12/03 06:35:10;;;;;;;38.08;15.65;;;7.00;99.90;;;;;;5051334;28;20044;-79
2020/12/03 06:37:58;;;;;;;35.40;14.43;;;7.00;99.90;;;;;;5053345;28;20108;-78
2020/12/03 06:40:28;;;;;;;39.33;15.27;;;7.00;99.90;;;;;;5050175;28;20054;-78
2020/12/03 06:43:24;;;;;;;30.00;15.27;;;6.90;99.90;;;;;;5051176;28;20013;-79
2020/12/03 06:46:08;;;;;;;33.67;14.90;;;6.90;99.90;;;;;;5052769;28;20097;-79
2020/12/03 06:48:59;;;;;;;46.25;17.65;;;6.90;99.90;;;;;;5053364;28;20029;-78
2020/12/03 06:51:55;;;;;;;36.92;18.52;;;7.00;99.90;;;;;;5047513;28;20058;-78
2020/12/03 06:54:39;;;;;;;41.58;16.70;;;7.00;99.90;;;;;;5045247;28;20029;-79
2020/12/03 06:57:32;;;;;;;41.10;17.50;;;7.00;99.90;;;;;;5052267;28;20550;-79
2020/12/03 07:00:23;;;;;;;38.60;18.15;;;7.00;99.90;;;;;;5036364;28;20405;-79
2020/12/03 07:03:25;;;;;;;44.60;18.35;;;7.00;99.90;;;;;;5051313;28;20388;-79
2020/12/03 07:06:09;;;;;;;36.15;17.80;;;7.10;99.90;;;;;;5049008;28;20056;-80
2020/12/03 07:08:54;;;;;;;46.22;18.20;;;7.10;99.90;;;;;;5050116;28;20037;-79
2020/12/03 07:11:41;;;;;;;45.78;18.80;;;7.10;99.90;;;;;;5053862;28;20024;-79
2020/12/03 07:14:19;;;;;;;40.80;17.83;;;7.10;99.90;;;;;;5044707;28;20502;-79
2020/12/03 07:17:23;;;;;;;44.47;18.70;;;7.10;99.90;;;;;;5048651;28;20041;-79
2020/12/03 07:20:08;;;;;;;41.83;18.38;;;7.10;99.90;;;;;;5052366;28;20389;-80
2020/12/03 07:22:38;;;;;;;43.40;19.45;;;7.10;99.90;;;;;;5036670;28;20033;-80
2020/12/03 07:25:06;;;;;;;43.00;19.48;;;7.10;99.90;;;;;;5051701;28;20075;-80
2020/12/03 07:28:10;;;;;;;38.50;19.50;;;7.10;99.90;;;;;;5048444;28;20025;-79
2020/12/03 07:30:46;;;;;;;40.67;17.98;;;7.10;99.90;;;;;;5038355;28;20462;-80
2020/12/03 07:33:18;;;;;;;45.88;18.95;;;7.10;99.90;;;;;;5053474;28;20021;-79
2020/12/03 07:36:23;;;;;;;43.47;18.35;;;7.10;99.90;;;;;;5053199;28;20036;-79
2020/12/03 07:38:54;;;;;;;41.20;19.38;;;7.10;99.90;;;;;;5049057;28;20037;-78
2020/12/03 07:41:23;;;;;;;49.70;21.15;;;7.10;99.90;;;;;;5064295;28;20021;-79
2020/12/03 07:44:02;;;;;;;;;;;7.10;99.90;;;;;;5073434;28;20029;-78
2020/12/03 07:46:27;;;;;;;52.33;19.88;;;7.10;99.90;;;;;;5070510;28;19908;-78
2020/12/03 07:48:53;;;;;;;53.80;20.83;;;7.10;99.90;;;;;;5074556;28;20041;-78
2020/12/03 07:51:19;;;;;;;48.83;21.05;;;7.10;99.90;;;;;;5076312;28;20025;-80
2020/12/03 07:53:46;;;;;;;52.42;21.73;;;7.10;99.90;;;;;;5079242;28;20021;-78
2020/12/03 07:56:24;;;;;;;49.15;20.05;;;7.10;99.90;;;;;;5078858;28;20052;-79
2020/12/03 07:58:50;;;;;;;;;;;7.10;99.90;;;;;;5062254;28;20044;-79
2020/12/03 08:01:27;;;;;;;51.90;20.17;;;7.20;99.90;;;;;;5059821;28;19905;-77
2020/12/03 08:04:09;;;;;;;44.92;19.88;;;7.20;99.90;;;;;;5057180;28;20040;-78
2020/12/03 08:06:37;;;;;;;51.90;22.63;;;7.20;99.90;;;;;;5038222;28;20117;-78
2020/12/03 08:09:03;;;;;;;53.17;21.70;;;7.20;99.90;;;;;;5052842;28;20043;-79
2020/12/03 08:12:10;;;;;;;58.72;23.67;;;7.20;99.90;;;;;;5052540;28;20021;-80
2020/12/03 08:14:45;;;;;;;52.75;21.23;;;7.20;99.90;;;;;;5054159;28;20191;-80
2020/12/03 08:17:17;;;;;;;65.57;22.90;;;7.20;99.90;;;;;;5054209;28;20037;-79
2020/12/03 08:20:05;;;;;;;59.15;24.38;;;7.10;99.90;;;;;;5056075;28;20100;-79
2020/12/03 08:22:41;;;;;;;51.08;21.13;;;7.20;99.90;;;;;;5046315;28;20035;-79
2020/12/03 08:25:26;;;;;;;58.95;21.60;;;7.30;99.90;;;;;;5052578;28;20158;-79
2020/12/03 08:27:58;;;;;;;52.40;21.45;;;7.30;99.90;;;;;;5052903;28;20094;-78
2020/12/03 08:30:37;;;;;;;58.63;20.98;;;7.20;99.90;;;;;;5054186;28;20033;-79
2020/12/03 08:33:12;;;;;;;52.60;20.40;;;7.20;99.90;;;;;;5053509;28;20044;-79
2020/12/03 08:35:47;;;;;;;50.40;18.60;;;7.20;99.90;;;;;;5053703;28;20040;-79
2020/12/03 08:38:13;;;;;;;53.70;20.08;;;7.20;99.90;;;;;;5047341;28;20078;-79
2020/12/03 08:40:39;;;;;;;50.15;21.25;;;7.20;99.90;;;;;;5052313;28;20033;-80
2020/12/03 08:43:09;;;;;;;47.75;20.67;;;7.20;99.90;;;;;;5034650;28;20034;-79
2020/12/03 08:45:47;;;;;;;52.45;19.80;;;7.20;99.90;;;;;;5046196;28;20025;-80
2020/12/03 08:48:15;;;;;;;45.63;19.25;;;7.20;99.90;;;;;;5051012;28;20025;-79
2020/12/03 08:50:41;;;;;;;;;;;7.20;99.90;;;;;;5055010;28;20052;-79
2020/12/03 08:53:08;;;;;;;45.83;18.58;;;7.20;99.90;;;;;;5053417;28;19913;-79
2020/12/03 08:55:38;;;;;;;46.25;17.60;;;7.10;99.90;;;;;;5053413;28;20044;-79
2020/12/03 08:58:05;;;;;;;48.50;17.83;;;7.10;99.90;;;;;;5054205;28;20052;-79
2020/12/03 09:00:38;;;;;;;40.10;17.80;;;7.10;99.90;;;;;;5051750;28;20013;-79
2020/12/03 09:03:05;;;;;;;48.25;17.92;;;7.10;99.90;;;;;;5051571;28;20280;-79
2020/12/03 09:05:32;;;;;;;35.30;16.90;;;7.10;99.90;;;;;;5054387;28;20028;-80
2020/12/03 09:07:58;;;;;;;39.67;17.60;;;7.10;99.90;;;;;;5053446;28;20032;-79
2020/12/03 09:10:25;;;;;;;42.13;17.00;;;7.10;99.90;;;;;;5052691;28;20020;-79
2020/12/03 09:12:52;;;;;;;38.70;17.98;;;7.10;99.90;;;;;;5054251;28;20025;-80
2020/12/03 09:15:18;;;;;;;42.58;17.95;;;7.10;99.90;;;;;;5052619;28;20131;-78
2020/12/03 09:17:54;;;;;;;43.40;18.38;;;7.00;99.90;;;;;;5053058;28;20491;-78
2020/12/03 09:20:20;;;;;;;36.90;17.27;;;7.00;99.90;;;;;;5049691;28;20021;-78
2020/12/03 09:22:46;;;;;;;39.20;16.92;;;7.00;99.90;;;;;;5049269;28;20159;-78
2020/12/03 09:25:14;;;;;;;36.25;16.45;;;7.00;99.90;;;;;;5053385;28;20095;-79
2020/12/03 09:27:45;;;;;;;39.22;17.73;;;7.10;99.90;;;;;;5054212;28;20047;-80
2020/12/03 09:30:20;;;;;;;34.55;16.70;;;7.10;99.90;;;;;;5054354;28;20029;-80
2020/12/03 09:32:56;;;;;;;37.90;16.55;;;7.10;99.90;;;;;;5063031;28;20049;-79
2020/12/03 09:35:22;;;;;;;25.27;14.07;;;7.20;99.90;;;;;;5074632;28;20408;-79
2020/12/03 09:37:48;;;;;;;28.52;13.55;;;7.10;99.90;;;;;;5075633;28;20035;-77
2020/12/03 09:40:15;;;;;;;25.67;13.48;;;7.20;99.90;;;;;;5076178;28;20045;-77
2020/12/03 09:42:46;;;;;;;31.35;14.02;;;7.30;99.90;;;;;;5076146;28;20025;-78
2020/12/03 09:45:16;;;;;;;25.02;12.48;;;7.30;99.90;;;;;;5077366;28;20087;-79
2020/12/03 09:47:44;;;;;;;25.95;12.07;;;7.40;99.90;;;;;;5083932;28;20060;-78
2020/12/03 09:50:13;;;;;;;27.90;11.95;;;7.40;99.90;;;;;;5075217;28;20001;-72
2020/12/03 09:52:42;;;;;;;28.38;12.57;;;7.40;99.90;;;;;;5056809;28;20042;-78
2020/12/03 09:55:14;;;;;;;28.48;12.23;;;7.30;99.90;;;;;;5055380;28;20020;-80
2020/12/03 09:57:40;;;;;;;30.35;12.90;;;7.30;99.90;;;;;;5051531;28;20082;-80
2020/12/03 10:00:10;;;;;;;27.17;12.02;;;7.30;99.90;;;;;;5053993;28;20017;-79
2020/12/03 10:03:11;;;;;;;27.25;11.35;;;7.30;99.90;;;;;;5033112;28;20033;-77
2020/12/03 10:06:04;;;;;;;20.48;11.07;;;7.30;99.90;;;;;;5042702;28;20051;-79
2020/12/03 10:08:55;;;;;;;26.13;12.35;;;7.30;99.90;;;;;;5052562;28;20025;-80
2020/12/03 10:11:51;;;;;;;23.33;11.77;;;7.30;99.90;;;;;;5053191;28;20017;-80
2020/12/03 10:15:01;;;;;;;29.10;13.15;;;7.30;99.90;;;;;;5052703;28;20041;-81
2020/12/03 10:17:50;;;;;;;29.73;11.85;;;7.30;99.90;;;;;;5046139;28;20128;-78
2020/12/03 10:20:18;;;;;;;34.50;15.07;;;7.30;99.90;;;;;;5053785;28;20028;-80
2020/12/03 10:23:06;;;;;;;29.23;14.10;;;7.30;99.90;;;;;;5053845;28;20049;-79
2020/12/03 10:25:33;;;;;;;35.53;14.30;;;7.20;99.90;;;;;;5053133;28;20037;-79
2020/12/03 10:28:17;;;;;;;31.50;15.10;;;7.20;99.90;;;;;;5052139;28;20053;-77
2020/12/03 10:30:45;;;;;;;28.13;13.52;;;7.20;99.90;;;;;;5054901;28;20029;-79
2020/12/03 10:33:15;;;;;;;31.23;15.07;;;7.30;99.90;;;;;;5054987;28;20035;-79
2020/12/03 10:35:47;;;;;;;27.60;13.93;;;7.30;99.90;;;;;;5057491;28;20547;-78
2020/12/03 10:38:22;;;;;;;34.08;14.43;;;7.20;99.90;;;;;;5052330;28;20091;-79
2020/12/03 10:40:55;;;;;;;41.28;15.20;;;7.30;99.90;;;;;;5049483;28;20395;-79
2020/12/03 10:43:34;;;;;;;41.35;14.05;;;7.30;99.90;;;;;;5050410;28;20059;-80
2020/12/03 10:46:03;;;;;;;33.60;13.93;;;7.30;99.90;;;;;;5041987;28;20038;-83
2020/12/03 10:48:34;;;;;;;27.95;12.77;;;7.30;99.90;;;;;;5053578;28;20104;-77
2020/12/03 10:51:09;;;;;;;34.75;13.68;;;7.40;99.90;;;;;;5051023;28;20048;-76
2020/12/03 10:53:37;;;;;;;30.70;13.68;;;7.30;99.90;;;;;;5051780;28;20025;-78
2020/12/03 10:56:12;;;;;;;25.75;12.55;;;7.40;99.90;;;;;;5051908;28;20076;-80
2020/12/03 10:59:00;;;;;;;26.00;13.40;;;7.40;99.90;;;;;;5051573;28;20488;-80
2020/12/03 11:01:28;;;;;;;;;;;7.40;99.90;;;;;;5052776;28;20437;-77
2020/12/03 11:03:57;;;;;;;25.30;12.10;;;7.40;99.90;;;;;;5050880;28;19991;-79
2020/12/03 11:06:32;;;;;;;28.73;13.13;;;7.40;99.90;;;;;;5052454;28;20018;-79
2020/12/03 11:08:59;;;;;;;24.20;12.18;;;7.40;99.90;;;;;;5036418;28;20029;-79
2020/12/03 11:11:34;;;;;;;29.90;13.40;;;7.40;99.90;;;;;;5052504;28;20018;-78
2020/12/03 11:14:00;;;;;;;30.70;13.15;;;7.40;99.90;;;;;;5054099;28;20029;-79
2020/12/03 11:16:31;;;;;;;35.60;13.15;;;7.30;99.90;;;;;;5053635;28;20041;-79
2020/12/03 11:18:59;;;;;;;21.83;12.73;;;7.30;99.90;;;;;;5052990;28;20040;-79
2020/12/03 11:21:30;;;;;;;31.08;13.20;;;7.30;99.90;;;;;;5053850;28;20378;-80
2020/12/03 11:24:18;;;;;;;24.33;11.27;;;7.30;99.90;;;;;;5055430;28;20041;-79
2020/12/03 11:26:45;;;;;;;26.75;11.60;;;7.30;99.90;;;;;;5073166;28;20033;-79
2020/12/03 11:29:16;;;;;;;29.37;11.83;;;7.30;99.90;;;;;;5075386;28;20009;-80
2020/12/03 11:31:43;;;;;;;28.27;11.65;;;7.30;99.90;;;;;;5077794;28;20291;-79
2020/12/03 11:34:09;;;;;;;26.83;12.23;;;7.40;99.90;;;;;;5073016;28;20078;-78
2020/12/03 11:36:37;;;;;;;27.98;13.30;;;7.30;99.90;;;;;;5054930;28;20051;-79
2020/12/03 11:39:04;;;;;;;;;;;7.40;99.90;;;;;;5037511;28;20037;-78
2020/12/03 11:49:26;;;;;;;26.75;11.25;;;7.50;99.90;;;;;;5055802;28;20040;-78
2020/12/03 11:51:52;;;;;;;20.50;11.00;;;7.50;99.90;;;;;;5039531;28;20029;-78
2020/12/03 11:54:25;;;;;;;22.63;12.18;;;7.40;99.90;;;;;;5055386;28;20052;-78
2020/12/03 11:56:55;;;;;;;27.17;12.00;;;7.50;99.90;;;;;;5054819;28;20539;-77
2020/12/03 11:59:22;;;;;;;33.28;13.90;;;7.50;99.90;;;;;;5056011;28;20386;-77
2020/12/03 12:01:51;;;;;;;25.23;13.30;;;7.50;99.90;;;;;;5056013;28;20013;-77
2020/12/03 12:04:24;;;;;;;25.85;12.80;;;7.50;99.90;;;;;;5055230;28;20017;-77
2020/12/03 12:07:06;;;;;;;24.73;13.18;;;7.50;99.90;;;;;;5054573;28;20037;-77
2020/12/03 12:12:04;;;;;;;22.38;12.30;;;7.50;99.90;;;;;;5056542;28;20025;-77
2020/12/03 12:14:30;;;;;;;27.13;14.47;;;7.60;99.90;;;;;;5054929;28;20037;-77
2020/12/03 12:16:56;;;;;;;27.92;13.55;;;7.60;99.90;;;;;;5054632;28;20049;-77
2020/12/03 12:19:24;;;;;;;29.48;14.90;;;7.70;99.90;;;;;;5055898;28;20109;-77
2020/12/03 12:21:50;;;;;;;30.48;14.52;;;7.70;99.90;;;;;;5054921;28;20032;-78
2020/12/03 12:24:16;;;;;;;28.85;14.57;;;7.70;99.90;;;;;;5054485;28;20025;-78
2020/12/03 12:26:41;;;;;;;22.15;13.55;;;7.70;99.90;;;;;;5048563;28;20095;-78
2020/12/03 12:29:07;;;;;;;31.55;13.48;;;7.70;99.90;;;;;;5053521;28;20070;-77
2020/12/03 12:31:32;;;;;;;23.52;14.48;;;7.60;99.90;;;;;;5055403;28;20025;-78
2020/12/03 12:33:58;;;;;;;27.23;13.35;;;7.50;99.90;;;;;;5053973;28;20187;-78
2020/12/03 12:36:24;;;;;;;27.58;14.13;;;7.40;99.90;;;;;;5053786;28;20021;-78
2020/12/03 12:38:49;;;;;;;26.88;13.73;;;7.50;99.90;;;;;;5055342;28;20108;-77
2020/12/03 12:41:15;;;;;;;31.20;11.73;;;7.60;99.90;;;;;;5055456;28;20473;-77
2020/12/03 12:43:40;;;;;;;24.20;11.90;;;7.50;99.90;;;;;;5055263;28;20017;-78
2020/12/03 12:46:06;;;;;;;21.10;11.25;;;7.50;99.90;;;;;;5034130;28;20374;-78
2020/12/03 12:48:32;;;;;;;21.70;10.75;;;7.50;99.90;;;;;;5050739;28;20056;-78
2020/12/03 12:50:57;;;;;;;18.88;10.88;;;7.50;99.90;;;;;;5054466;28;20032;-78
2020/12/03 12:53:23;;;;;;;21.83;10.10;;;7.60;99.90;;;;;;5054309;28;20033;-78
2020/12/03 12:55:48;;;;;;;19.08;10.55;;;7.70;99.90;;;;;;5053243;28;20035;-78
2020/12/03 12:58:14;;;;;;;18.08;9.50;;;7.60;99.90;;;;;;5054329;28;20017;-78
2020/12/03 13:00:40;;;;;;;19.92;9.68;;;7.60;99.90;;;;;;5046025;28;20083;-78
2020/12/03 13:03:05;;;;;;;17.85;9.32;;;7.60;99.90;;;;;;5041310;28;20485;-78
2020/12/03 13:05:32;;;;;;;21.25;9.32;;;7.50;99.90;;;;;;5044113;28;20033;-78
2020/12/03 13:07:57;;;;;;;17.15;9.38;;;7.50;99.90;;;;;;5055122;28;20029;-78
2020/12/03 13:10:23;;;;;;;17.23;9.20;;;7.40;99.90;;;;;;5054329;28;20028;-78
2020/12/03 13:12:49;;;;;;;23.05;10.30;;;7.40;99.90;;;;;;5040638;28;20041;-78
2020/12/03 13:15:14;;;;;;;17.30;8.75;;;7.40;99.90;;;;;;5034751;28;20034;-78
2020/12/03 13:17:41;;;;;;;14.88;9.10;;;7.40;99.90;;;;;;5036571;28;20041;-77